Time;durP1;ratioP1;P1;durP2;ratioP2;P2;SDS_P1;SDS_P2;PMS_P1;PMS_P2;Temp;Humidity;BMP_temperature;BMP_pressure;BME280_temperature;BME280_humidity;BME280_pressure;Samples;Min_cycle;Max_cycle;Signal;HPM_P1;HPM_P2
2022/05/18 00:00:54;;;;;;;6.50;3.35;;;;;;;17.49;82.40;100602.78;5111527;28;21401;-72
2022/05/18 00:03:33;;;;;;;6.90;3.50;;;;;;;17.48;82.17;100609.22;5111037;28;20031;-72
2022/05/18 00:06:00;;;;;;;4.90;3.50;;;;;;;17.44;82.42;100607.84;5111323;28;20039;-72
2022/05/18 00:08:26;;;;;;;4.75;3.22;;;;;;;17.44;82.20;100602.41;5111154;28;20049;-72
2022/05/18 00:10:52;;;;;;;7.30;3.42;;;;;;;17.51;82.08;100615.13;5111272;28;20475;-72
2022/05/18 00:13:19;;;;;;;4.82;3.33;;;;;;;17.46;83.11;100614.81;5111161;28;20016;-72
2022/05/18 00:15:45;;;;;;;8.27;4.00;;;;;;;17.42;82.94;100609.88;5092481;28;20397;-72
2022/05/18 00:18:11;;;;;;;4.68;3.65;;;;;;;17.38;83.21;100617.47;5092795;28;20039;-72
2022/05/18 00:20:36;;;;;;;5.85;4.32;;;;;;;17.34;84.44;100631.56;5111253;28;20595;-72
2022/05/18 00:23:04;;;;;;;5.63;3.45;;;;;;;17.29;84.03;100617.69;5110881;28;20028;-72
2022/05/18 00:25:34;;;;;;;6.22;4.07;;;;;;;17.29;83.85;100628.53;5110612;28;20054;-71
2022/05/18 00:27:59;;;;;;;9.90;4.15;;;;;;;17.25;84.65;100629.88;5110942;28;20399;-72
2022/05/18 00:30:27;;;;;;;6.15;4.35;;;;;;;17.18;85.60;100623.41;5110506;28;20024;-72
2022/05/18 00:32:53;;;;;;;8.57;4.35;;;;;;;17.20;85.74;100638.53;5110923;28;20031;-71
2022/05/18 00:35:20;;;;;;;5.85;3.47;;;;;;;17.20;85.28;100640.38;5092377;28;20092;-71
2022/05/18 00:37:45;;;;;;;7.78;3.75;;;;;;;17.11;85.75;100628.69;5110634;28;20092;-70
2022/05/18 00:40:14;;;;;;;8.35;3.85;;;;;;;17.20;85.07;100645.78;5110621;28;20024;-72
2022/05/18 00:42:40;;;;;;;6.07;4.00;;;;;;;17.17;84.91;100649.69;5110814;28;20027;-71
2022/05/18 00:45:07;;;;;;;4.88;3.47;;;;;;;17.18;83.84;100651.38;5110325;28;20111;-72
2022/05/18 00:47:32;;;;;;;5.05;3.40;;;;;;;17.18;83.58;100653.25;5110495;28;20031;-70
2022/05/18 00:50:06;;;;;;;7.43;3.83;;;;;;;17.20;82.43;100660.22;5110342;28;20410;-70
2022/05/18 00:52:37;;;;;;;5.50;3.42;;;;;;;17.20;81.62;100656.66;5092731;28;20032;-71
2022/05/18 00:55:03;;;;;;;6.30;3.72;;;;;;;17.17;81.41;100654.25;5091829;28;20069;-71
2022/05/18 00:57:38;;;;;;;7.20;4.03;;;;;;;17.17;81.52;100656.97;5110252;28;20015;-71
2022/05/18 01:00:08;;;;;;;4.60;3.13;;;;;;;17.21;81.31;100666.47;5110427;28;20028;-70
2022/05/18 01:02:38;;;;;;;7.75;3.35;;;;;;;17.18;80.77;100664.09;5090905;28;20380;-72
2022/05/18 01:05:08;;;;;;;3.92;3.35;;;;;;;17.19;80.75;100669.34;5110065;28;20107;-71
2022/05/18 01:07:44;;;;;;;4.13;3.28;;;;;;;17.04;81.33;100649.34;5110458;28;20024;-71
2022/05/18 01:10:10;;;;;;;8.55;3.58;;;;;;;17.18;80.22;100680.34;5110117;28;20133;-71
2022/05/18 01:12:35;;;;;;;3.90;3.00;;;;;;;17.14;80.33;100681.72;5109844;28;20030;-71
2022/05/18 01:15:05;;;;;;;6.55;3.67;;;;;;;17.17;78.33;100684.94;5110073;28;20070;-72
2022/05/18 01:17:34;;;;;;;3.80;2.70;;;;;;;17.19;78.06;100687.50;5109922;28;20035;-71
2022/05/18 01:20:02;;;;;;;5.32;3.10;;;;;;;17.10;76.89;100683.91;5109867;28;20035;-70
2022/05/18 01:22:43;;;;;;;3.60;2.85;;;;;;;17.14;77.20;100692.53;5109677;28;20076;-70
2022/05/18 01:25:45;;;;;;;4.65;2.65;;;;;;;17.15;76.23;100686.13;5109248;28;20119;-71
2022/05/18 01:28:12;;;;;;;4.80;2.85;;;;;;;17.07;75.65;100675.25;5089060;28;20466;-70
2022/05/18 01:30:42;;;;;;;4.55;2.80;;;;;;;17.13;74.66;100686.31;5109664;28;20031;-71
2022/05/18 01:33:09;;;;;;;7.55;2.65;;;;;;;17.07;74.28;100678.84;5109366;28;20375;-71
2022/05/18 01:35:39;;;;;;;6.38;2.70;;;;;;;17.10;73.29;100692.06;5090999;28;20121;-71
2022/05/18 01:38:06;;;;;;;6.45;3.08;;;;;;;17.06;72.48;100695.25;5109004;28;20517;-71
2022/05/18 01:40:40;;;;;;;6.22;2.60;;;;;;;17.04;72.15;100692.72;5091225;28;20074;-71
2022/05/18 01:43:33;;;;;;;7.07;2.72;;;;;;;16.98;69.53;100698.81;5108873;28;20042;-71
2022/05/18 01:46:01;;;;;;;5.05;2.90;;;;;;;16.98;69.26;100698.81;5109721;28;20446;-71
2022/05/18 01:48:29;;;;;;;5.45;2.40;;;;;;;16.94;68.29;100696.59;5108608;28;20059;-70
2022/05/18 01:50:55;;;;;;;7.10;2.92;;;;;;;16.89;67.61;100696.22;5109013;28;20032;-70
2022/05/18 01:53:20;;;;;;;4.40;2.42;;;;;;;16.93;67.44;100705.75;5108692;28;20045;-69
2022/05/18 01:55:47;;;;;;;3.53;1.90;;;;;;;16.87;66.18;100707.25;5108806;28;20403;-70
2022/05/18 01:58:14;;;;;;;4.00;2.20;;;;;;;16.82;65.79;100706.03;5109167;28;20041;-71
2022/05/18 02:00:41;;;;;;;5.10;2.65;;;;;;;16.80;64.42;100708.06;5108556;28;20028;-71
2022/05/18 02:03:06;;;;;;;3.88;1.92;;;;;;;16.75;63.85;100707.69;5108615;28;20031;-71
2022/05/18 02:05:32;;;;;;;4.05;2.22;;;;;;;16.73;64.24;100707.88;5107414;28;20024;-71
2022/05/18 02:07:58;;;;;;;7.03;2.72;;;;;;;16.65;63.70;100707.00;5108902;28;20031;-71
2022/05/18 02:10:24;;;;;;;9.65;2.10;;;;;;;16.64;62.83;100708.84;5108035;28;20195;-70
2022/05/18 02:12:50;;;;;;;4.18;2.33;;;;;;;16.54;63.02;100707.31;5107912;28;20035;-71
2022/05/18 02:15:16;;;;;;;2.60;2.10;;;;;;;16.56;62.61;100729.63;5108436;28;20030;-70
2022/05/18 02:17:43;;;;;;;4.00;2.17;;;;;;;16.52;62.39;100715.59;5107041;28;20028;-70
2022/05/18 02:20:10;;;;;;;5.38;2.38;;;;;;;16.50;61.85;100727.56;5088652;28;20110;-71
2022/05/18 02:22:36;;;;;;;5.07;2.65;;;;;;;16.47;61.82;100728.75;5107804;28;20028;-71
2022/05/18 02:25:03;;;;;;;10.15;3.33;;;;;;;16.30;62.22;100709.84;5108081;28;20050;-70
2022/05/18 02:27:29;;;;;;;4.25;2.55;;;;;;;16.39;62.66;100742.25;5108272;28;20031;-70
2022/05/18 02:29:55;;;;;;;5.63;2.28;;;;;;;16.30;62.80;100726.09;5108517;28;20087;-71
2022/05/18 02:32:20;;;;;;;5.25;2.10;;;;;;;16.31;62.85;100735.94;5108139;28;20027;-69
2022/05/18 02:34:46;;;;;;;4.85;2.60;;;;;;;16.26;62.30;100741.84;5108593;28;20096;-71
2022/05/18 02:37:11;;;;;;;5.38;2.40;;;;;;;16.17;62.65;100733.81;5107965;28;20637;-70
2022/05/18 02:39:37;;;;;;;4.78;2.33;;;;;;;16.22;62.56;100748.53;5108193;28;20027;-70
2022/05/18 02:42:03;;;;;;;5.95;2.60;;;;;;;16.10;62.11;100744.44;5108003;28;20031;-71
2022/05/18 02:44:29;;;;;;;6.50;2.45;;;;;;;16.04;61.94;100752.31;5108101;28;20062;-71
2022/05/18 02:46:59;;;;;;;3.53;2.17;;;;;;;16.03;61.66;100765.03;5108305;28;20114;-70
2022/05/18 02:49:25;;;;;;;5.10;2.17;;;;;;;15.97;61.75;100759.38;5089371;28;20035;-71
2022/05/18 02:51:51;;;;;;;12.00;2.22;;;;;;;15.97;61.80;100771.06;5089692;28;20051;-71
2022/05/18 02:57:02;;;;;;;6.15;2.08;;;;;;;15.90;60.63;100778.13;5108478;28;20041;-70
2022/05/18 02:59:28;;;;;;;2.83;2.10;;;;;;;15.87;60.47;100787.38;5107916;28;20538;-71
2022/05/18 03:01:53;;;;;;;4.15;1.92;;;;;;;15.81;60.24;100779.88;5108080;28;20110;-69
2022/05/18 03:04:19;;;;;;;4.72;1.80;;;;;;;15.78;59.95;100782.94;5107898;28;20277;-70
2022/05/18 03:06:45;;;;;;;4.18;2.03;;;;;;;15.67;59.52;100776.88;5108154;28;20028;-70
2022/05/18 03:09:10;;;;;;;3.45;2.03;;;;;;;15.76;59.05;100795.75;5107687;28;20031;-71
2022/05/18 03:11:36;;;;;;;3.38;1.85;;;;;;;15.72;58.75;100797.06;5107849;28;20111;-71
2022/05/18 03:14:01;;;;;;;6.50;1.90;;;;;;;15.65;58.59;100796.00;5108128;28;20064;-70
2022/05/18 03:16:28;;;;;;;3.88;2.13;;;;;;;15.61;58.51;100802.72;5107797;28;20051;-71
2022/05/18 03:18:53;;;;;;;6.90;2.35;;;;;;;15.62;58.40;100804.44;5107927;28;20044;-71
2022/05/18 03:24:03;;;;;;;4.50;2.20;;;;;;;15.43;58.01;100796.47;5105483;28;20042;-70
2022/05/18 03:26:29;;;;;;;5.30;2.00;;;;;;;15.59;58.07;100825.50;5111088;28;20048;-70
2022/05/18 03:28:56;;;;;;;5.10;2.08;;;;;;;15.57;58.42;100846.44;5111870;28;20038;-70
2022/05/18 03:31:23;;;;;;;5.32;2.00;;;;;;;15.58;58.58;100853.56;5093680;28;20027;-70
2022/05/18 03:33:50;;;;;;;6.95;2.03;;;;;;;15.49;57.84;100851.78;5112286;28;20530;-70
2022/05/18 03:36:17;;;;;;;4.05;1.85;;;;;;;15.48;57.60;100850.06;5111677;28;20034;-70
2022/05/18 03:38:45;;;;;;;6.15;2.00;;;;;;;15.44;57.11;100860.34;5111817;28;20042;-70
2022/05/18 03:41:12;;;;;;;4.85;1.80;;;;;;;15.45;56.66;100851.22;5093129;28;20040;-70
2022/05/18 03:43:37;;;;;;;6.90;1.73;;;;;;;15.42;56.42;100862.31;5111793;28;20111;-69
2022/05/18 03:46:04;;;;;;;9.95;2.17;;;;;;;15.42;56.34;100877.72;5111826;28;20114;-69
2022/05/18 03:48:31;;;;;;;4.05;1.70;;;;;;;15.33;56.81;100865.06;5111760;28;20514;-71
2022/05/18 03:50:58;;;;;;;5.85;2.03;;;;;;;15.32;56.08;100872.31;5111509;28;20039;-70
2022/05/18 03:53:24;;;;;;;8.38;2.15;;;;;;;15.33;56.22;100874.03;5111480;28;20088;-70
2022/05/18 03:55:50;;;;;;;5.25;1.80;;;;;;;15.45;55.99;100899.88;5111658;28;20039;-70
2022/05/18 03:58:16;;;;;;;4.45;1.63;;;;;;;15.45;55.68;100904.44;5111403;28;20401;-69
2022/05/18 04:00:43;;;;;;;5.57;2.10;;;;;;;15.45;55.64;100910.69;5111510;28;20024;-69
2022/05/18 04:03:10;;;;;;;3.40;1.85;;;;;;;15.45;55.00;100915.25;5111227;28;20089;-69
2022/05/18 04:05:37;;;;;;;3.53;1.83;;;;;;;15.47;55.16;100930.31;5111351;28;20023;-70
2022/05/18 04:08:04;;;;;;;7.80;1.90;;;;;;;15.40;54.06;100923.81;5111214;28;20032;-69
2022/05/18 04:10:30;;;;;;;4.53;1.83;;;;;;;15.37;53.58;100932.22;5111169;28;20442;-70
2022/05/18 04:12:55;;;;;;;4.70;1.83;;;;;;;15.34;53.46;100931.63;5111274;28;20134;-69
2022/05/18 04:15:21;;;;;;;2.20;1.60;;;;;;;15.35;52.94;100945.00;5111212;28;20030;-70
2022/05/18 04:17:48;;;;;;;4.22;1.38;;;;;;;15.37;52.68;100953.84;5092748;28;20051;-71
2022/05/18 04:20:16;;;;;;;7.53;1.48;;;;;;;15.34;52.78;100946.00;5092699;28;20466;-70
2022/05/18 04:22:42;;;;;;;3.85;1.77;;;;;;;15.36;52.88;100960.28;5092831;28;20023;-70
2022/05/18 04:25:10;;;;;;;10.88;1.98;;;;;;;15.34;52.58;100962.22;5110526;28;20056;-72
2022/05/18 04:27:35;;;;;;;2.95;1.05;;;;;;;15.27;52.77;100950.31;5110964;28;20575;-71
2022/05/18 04:30:01;;;;;;;3.38;1.63;;;;;;;15.48;52.10;100977.16;5111035;28;20039;-70
2022/05/18 04:32:26;;;;;;;8.68;1.80;;;;;;;15.56;51.85;100978.09;5110379;28;20023;-70
2022/05/18 04:34:52;;;;;;;5.40;1.95;;;;;;;15.74;51.49;100981.66;5110836;28;20037;-70
2022/05/18 04:37:18;;;;;;;6.75;1.85;;;;;;;15.83;50.40;100983.47;5110131;28;20067;-70
2022/05/18 04:39:44;;;;;;;5.03;1.80;;;;;;;15.99;50.60;101006.31;5110062;28;20104;-68
2022/05/18 04:42:10;;;;;;;5.68;1.92;;;;;;;16.04;50.49;101002.13;5091464;28;20035;-68
2022/05/18 04:44:36;;;;;;;9.90;1.75;;;;;;;16.13;50.61;101009.34;5110217;28;20102;-69
2022/05/18 04:47:01;;;;;;;3.20;1.75;;;;;;;16.21;49.85;101019.38;5110174;28;20031;-69
2022/05/18 04:49:27;;;;;;;3.63;1.42;;;;;;;16.19;48.74;101027.69;5110004;28;20050;-70
2022/05/18 04:51:53;;;;;;;9.15;1.52;;;;;;;16.20;48.43;101040.19;5092293;28;20032;-70
2022/05/18 04:54:19;;;;;;;7.10;1.73;;;;;;;16.12;47.95;101039.28;5110428;28;20023;-69
2022/05/18 04:56:44;;;;;;;6.43;1.45;;;;;;;16.13;47.97;101049.09;5110417;28;20032;-68
2022/05/18 04:59:12;;;;;;;3.88;1.33;;;;;;;16.13;47.24;101046.38;5110390;28;20024;-70
2022/05/18 05:01:38;;;;;;;5.05;1.50;;;;;;;16.23;47.10;101039.03;5110193;28;20037;-69
2022/05/18 05:04:09;;;;;;;11.85;1.98;;;;;;;16.39;46.69;101059.03;5110012;28;20031;-70
2022/05/18 05:06:38;;;;;;;10.07;1.48;;;;;;;16.45;46.46;101063.84;5109800;28;20475;-69
2022/05/18 05:09:04;;;;;;;4.57;1.30;;;;;;;16.47;46.23;101061.00;5090762;28;20110;-70
2022/05/18 05:11:29;;;;;;;5.15;1.92;;;;;;;16.42;46.82;101065.97;5109489;28;20119;-69
2022/05/18 05:13:55;;;;;;;5.05;1.63;;;;;;;16.43;46.73;101076.69;5109973;28;20023;-70
2022/05/18 05:16:20;;;;;;;5.20;1.70;;;;;;;16.39;46.76;101079.81;5109923;28;20035;-70
2022/05/18 05:18:46;;;;;;;5.88;1.65;;;;;;;16.39;45.89;101093.34;5109406;28;20089;-69
2022/05/18 05:21:11;;;;;;;13.15;1.70;;;;;;;16.32;46.05;101085.00;5109419;28;20063;-69
2022/05/18 05:23:36;;;;;;;6.70;1.23;;;;;;;16.33;46.22;101088.56;5109356;28;20666;-69
2022/05/18 05:26:03;;;;;;;4.45;1.50;;;;;;;16.44;46.41;101102.75;5109493;28;20677;-69
2022/05/18 05:28:29;;;;;;;4.88;2.05;;;;;;;16.47;45.39;101107.03;5109520;28;20081;-70
2022/05/18 05:30:55;;;;;;;7.47;2.10;;;;;;;16.42;44.99;101102.03;5109595;28;20035;-71
2022/05/18 05:33:21;;;;;;;4.60;1.30;;;;;;;16.49;44.70;101122.13;5109422;28;20102;-69
2022/05/18 05:35:46;;;;;;;10.60;1.83;;;;;;;16.48;45.07;101131.22;5090729;28;20036;-70
2022/05/18 05:38:12;;;;;;;8.25;1.42;;;;;;;16.48;43.93;101141.22;5109210;28;20031;-70
2022/05/18 05:40:39;;;;;;;13.07;1.75;;;;;;;16.38;44.60;101138.53;5109482;28;20067;-70
2022/05/18 05:43:11;;;;;;;11.38;1.88;;;;;;;16.48;45.34;101149.34;5109037;28;20027;-70
2022/05/18 05:45:38;;;;;;;6.70;1.92;;;;;;;16.52;45.18;101134.50;5109587;28;20475;-70
2022/05/18 05:48:05;;;;;;;12.27;1.73;;;;;;;16.54;44.35;101140.63;5108381;28;20103;-69
2022/05/18 05:50:33;;;;;;;11.02;1.40;;;;;;;16.64;43.88;101155.78;5108942;28;20040;-68
2022/05/18 05:52:59;;;;;;;8.73;1.90;;;;;;;16.64;43.16;101161.19;5108914;28;20046;-69
2022/05/18 05:55:26;;;;;;;7.13;1.40;;;;;;;16.60;43.13;101159.81;5109064;28;20023;-68
2022/05/18 05:57:56;;;;;;;7.28;1.50;;;;;;;16.58;43.29;101160.97;5090709;28;20791;-68
2022/05/18 06:00:25;;;;;;;3.92;1.30;;;;;;;16.44;42.87;101143.38;5108838;28;20039;-68
2022/05/18 06:02:50;;;;;;;5.80;1.35;;;;;;;16.52;43.06;101161.56;5108884;28;20114;-70
2022/05/18 06:05:17;;;;;;;5.63;1.40;;;;;;;16.45;42.84;101152.34;5108417;28;20560;-69
2022/05/18 06:07:42;;;;;;;5.50;1.20;;;;;;;16.58;43.25;101179.94;5108501;28;20028;-69
2022/05/18 06:10:09;;;;;;;5.90;1.23;;;;;;;16.57;42.10;101180.94;5090408;28;20100;-71
2022/05/18 06:12:34;;;;;;;15.77;1.90;;;;;;;16.52;41.74;101177.81;5108264;28;20062;-69
2022/05/18 06:15:00;;;;;;;8.82;1.48;;;;;;;16.50;42.34;101179.81;5108109;28;20525;-70
2022/05/18 06:17:26;;;;;;;4.88;1.40;;;;;;;16.49;41.80;101187.13;5107564;28;20030;-70
2022/05/18 06:19:51;;;;;;;8.13;1.48;;;;;;;16.55;42.42;101185.66;5107601;28;20036;-70
2022/05/18 06:22:17;;;;;;;6.45;1.42;;;;;;;16.52;41.48;101191.38;5090115;28;20042;-69
2022/05/18 06:24:47;;;;;;;10.73;1.50;;;;;;;16.58;42.01;101196.19;5108401;28;20088;-70
2022/05/18 06:27:13;;;;;;;18.00;1.98;;;;;;;16.71;41.90;101200.25;5108354;28;20027;-70
2022/05/18 06:29:39;;;;;;;4.38;1.30;;;;;;;16.78;41.21;101190.50;5108635;28;20029;-71
2022/05/18 06:32:05;;;;;;;7.78;1.40;;;;;;;16.99;39.94;101187.50;5108614;28;20117;-71
2022/05/18 06:34:31;;;;;;;11.77;1.45;;;;;;;17.27;39.90;101208.94;5108498;28;20023;-70
2022/05/18 06:36:56;;;;;;;10.25;1.58;;;;;;;17.41;38.70;101215.69;5108877;28;20494;-71
2022/05/18 06:39:22;;;;;;;10.77;1.45;;;;;;;17.51;38.61;101211.03;5108274;28;20028;-69
2022/05/18 06:41:48;;;;;;;6.80;1.60;;;;;;;17.68;38.16;101237.28;5108604;28;20131;-69
2022/05/18 06:44:14;;;;;;;9.10;1.63;;;;;;;17.74;38.14;101221.19;5108054;28;20442;-70
2022/05/18 06:46:39;;;;;;;6.43;1.48;;;;;;;17.92;38.33;101230.16;5108591;28;20166;-70
2022/05/18 06:49:07;;;;;;;5.75;1.20;;;;;;;18.09;38.29;101236.56;5108377;28;20130;-71
2022/05/18 06:51:36;;;;;;;2.50;1.45;;;;;;;18.22;37.45;101244.25;5108166;28;20071;-70
2022/05/18 06:54:03;;;;;;;8.15;1.90;;;;;;;18.39;37.42;101246.06;5108116;28;20403;-69
2022/05/18 06:56:32;;;;;;;5.93;1.60;;;;;;;18.50;36.66;101251.25;5108395;28;20023;-69
2022/05/18 06:58:58;;;;;;;6.88;1.23;;;;;;;18.50;36.10;101227.63;5108611;28;20066;-70
2022/05/18 07:01:25;;;;;;;3.67;1.30;;;;;;;18.75;35.78;101258.47;5089510;28;20096;-70
2022/05/18 07:03:51;;;;;;;11.07;1.42;;;;;;;18.86;35.69;101256.28;5108002;28;20103;-71
2022/05/18 07:06:20;;;;;;;9.27;1.52;;;;;;;19.06;33.85;101284.06;5108034;28;20020;-70
2022/05/18 07:08:45;;;;;;;6.82;1.40;;;;;;;19.09;32.63;101281.84;5107977;28;20039;-71
2022/05/18 07:11:12;;;;;;;5.05;1.55;;;;;;;19.11;32.27;101277.09;5108042;28;20026;-70
2022/05/18 07:13:40;;;;;;;4.45;1.23;;;;;;;18.96;31.92;101273.31;5108179;28;20201;-71
2022/05/18 07:16:06;;;;;;;11.43;1.40;;;;;;;18.95;31.96;101301.53;5108049;28;20511;-71
2022/05/18 07:18:33;;;;;;;16.58;2.42;;;;;;;18.82;32.68;101276.69;5108094;28;20103;-70
2022/05/18 07:21:00;;;;;;;8.10;1.40;;;;;;;18.86;32.32;101298.97;5108251;28;20035;-69
2022/05/18 07:23:26;;;;;;;3.60;1.40;;;;;;;18.87;32.72;101295.22;5107818;28;20032;-70
2022/05/18 07:25:54;;;;;;;5.40;1.20;;;;;;;18.84;32.39;101281.94;5107886;28;20533;-69
2022/05/18 07:28:19;;;;;;;6.15;1.48;;;;;;;18.86;32.19;101307.13;5107592;28;20074;-69
2022/05/18 07:30:45;;;;;;;7.25;1.20;;;;;;;18.88;32.15;101302.34;5107916;28;20463;-71
2022/05/18 07:33:11;;;;;;;7.32;1.48;;;;;;;18.95;31.94;101300.66;5107712;28;20160;-71
2022/05/18 07:35:37;;;;;;;9.52;1.60;;;;;;;19.06;31.77;101301.22;5089388;28;20024;-71
2022/05/18 07:38:03;;;;;;;11.05;1.52;;;;;;;19.16;32.18;101298.38;5089660;28;20817;-70
2022/05/18 07:40:29;;;;;;;11.40;1.88;;;;;;;19.24;32.37;101301.97;5108045;28;20061;-70
2022/05/18 07:42:56;;;;;;;10.38;2.00;;;;;;;19.24;32.37;101307.41;5107904;28;20035;-71
2022/05/18 07:45:25;;;;;;;12.68;1.30;;;;;;;19.35;32.03;101315.25;5089188;28;20032;-70
2022/05/18 07:47:52;;;;;;;8.00;1.48;;;;;;;19.29;31.98;101320.53;5089401;28;20039;-70
2022/05/18 07:50:19;;;;;;;16.15;1.85;;;;;;;19.22;31.70;101324.91;5107551;28;20027;-72
2022/05/18 07:52:45;;;;;;;11.80;1.63;;;;;;;19.26;32.20;101324.44;5107634;28;20509;-70
2022/05/18 07:55:10;;;;;;;10.75;1.88;;;;;;;19.31;32.38;101330.22;5107472;28;20028;-70
2022/05/18 07:57:36;;;;;;;6.38;1.65;;;;;;;19.38;31.25;101333.16;5107801;28;20041;-70
2022/05/18 08:00:02;;;;;;;8.38;1.45;;;;;;;19.42;31.07;101331.78;5108012;28;20023;-70
2022/05/18 08:02:29;;;;;;;8.27;1.52;;;;;;;19.45;31.16;101334.19;5107326;28;20023;-70
2022/05/18 08:04:55;;;;;;;11.40;1.65;;;;;;;19.48;30.93;101339.28;5107353;28;20035;-70
2022/05/18 08:07:21;;;;;;;13.15;1.80;;;;;;;19.51;31.16;101328.91;5107521;28;20395;-71
2022/05/18 08:15:25;;;;;;;9.68;1.48;;;;;;;19.60;30.04;101357.84;5055368;28;20207;-71
2022/05/18 08:17:50;;;;;;;9.70;1.50;;;;;;;19.50;30.16;101320.91;5111241;28;20067;-70
2022/05/18 08:20:18;;;;;;;5.65;1.15;;;;;;;19.64;30.03;101356.47;5111183;28;20012;-70
2022/05/18 08:22:44;;;;;;;5.78;1.30;;;;;;;19.67;28.97;101360.75;5092626;28;20390;-70
2022/05/18 08:25:11;;;;;;;4.07;1.65;;;;;;;19.62;29.15;101360.41;5092390;28;20039;-70
2022/05/18 08:27:46;;;;;;;8.57;1.50;;;;;;;19.51;28.56;101350.69;5111022;28;20027;-71
2022/05/18 08:30:15;;;;;;;3.75;0.95;;;;;;;19.66;29.10;101362.63;5110889;28;20098;-70
2022/05/18 08:32:41;;;;;;;9.07;1.30;;;;;;;19.69;29.79;101370.47;5110820;28;20394;-70
2022/05/18 08:35:08;;;;;;;13.07;1.75;;;;;;;19.77;29.73;101378.63;5110880;28;20019;-71
2022/05/18 08:37:44;;;;;;;11.75;1.67;;;;;;;19.81;29.14;101379.16;5111401;28;20080;-70
2022/05/18 08:40:22;;;;;;;9.70;1.48;;;;;;;19.82;28.93;101370.81;5110580;28;20114;-71
2022/05/18 08:42:47;;;;;;;7.00;1.27;;;;;;;19.82;29.25;101389.88;5110871;28;20043;-71
2022/05/18 08:45:13;;;;;;;12.63;1.52;;;;;;;19.83;29.11;101386.13;5110619;28;20027;-70
2022/05/18 08:47:46;;;;;;;5.82;1.40;;;;;;;19.83;28.53;101394.28;5092261;28;20391;-71
2022/05/18 08:50:15;;;;;;;5.28;1.35;;;;;;;19.89;29.18;101393.63;5091943;28;20060;-71
2022/05/18 08:52:50;;;;;;;7.95;1.48;;;;;;;19.96;28.76;101396.53;5110503;28;20031;-70
2022/05/18 08:55:25;;;;;;;3.88;1.02;;;;;;;20.04;28.52;101401.97;5110532;28;20103;-70
2022/05/18 08:57:53;;;;;;;9.68;1.52;;;;;;;20.04;28.22;101399.25;5111404;28;20436;-71
2022/05/18 09:00:27;;;;;;;7.97;1.80;;;;;;;20.08;28.33;101389.72;5110466;28;20024;-71
2022/05/18 09:03:04;;;;;;;5.32;1.33;;;;;;;20.07;28.44;101391.59;5110553;28;20055;-70
2022/05/18 09:05:38;;;;;;;9.48;1.10;;;;;;;20.10;28.05;101406.75;5110039;28;20061;-71
2022/05/18 09:08:12;;;;;;;6.45;1.30;;;;;;;20.10;27.44;101402.16;5110549;28;20034;-70
2022/05/18 09:10:44;;;;;;;;;;;;;;;20.13;27.32;101401.84;5110928;28;20475;-70
2022/05/18 09:13:10;;;;;;;5.70;1.95;;;;;;;20.15;27.63;101402.53;5110141;28;20294;-71
2022/05/18 09:16:09;;;;;;;4.65;1.38;;;;;;;20.18;27.17;101406.78;5110128;28;20039;-70
2022/05/18 09:18:38;;;;;;;3.00;1.10;;;;;;;20.28;27.65;101404.72;5110527;28;20055;-70
2022/05/18 09:21:38;;;;;;;3.67;1.40;;;;;;;20.28;27.72;101402.00;5109885;28;20023;-71
2022/05/18 09:24:20;;;;;;;6.57;1.20;;;;;;;20.29;27.86;101391.97;5108869;28;20451;-71
2022/05/18 09:27:01;;;;;;;6.32;1.27;;;;;;;20.37;28.25;101395.53;5109867;28;20115;-71
2022/05/18 09:29:38;;;;;;;10.20;1.77;;;;;;;20.43;27.97;101405.75;5091254;28;20421;-71
2022/05/18 09:32:39;;;;;;;5.75;1.38;;;;;;;20.45;26.09;101416.50;5091330;28;20114;-72
2022/05/18 09:35:23;;;;;;;9.98;1.65;;;;;;;20.40;25.79;101410.69;5089351;28;20035;-70
2022/05/18 09:37:54;;;;;;;8.10;1.10;;;;;;;20.45;26.64;101411.91;5109704;28;20027;-71
2022/05/18 09:40:30;;;;;;;16.65;1.95;;;;;;;20.38;26.76;101413.63;5109481;28;20276;-70
2022/05/18 09:43:03;;;;;;;5.70;1.23;;;;;;;20.36;26.78;101404.75;5109896;28;20612;-71
2022/05/18 09:45:32;;;;;;;3.70;0.88;;;;;;;20.43;27.13;101410.34;5109469;28;20027;-71
2022/05/18 09:48:29;;;;;;;6.75;1.45;;;;;;;20.39;26.36;101420.75;5109617;28;20398;-72
2022/05/18 09:50:56;;;;;;;4.97;1.20;;;;;;;20.36;26.56;101412.06;5100192;28;20540;-70
2022/05/18 09:53:21;;;;;;;5.13;1.40;;;;;;;20.41;26.22;101399.63;5109396;28;20475;-70
2022/05/18 09:55:50;;;;;;;3.03;1.10;;;;;;;20.41;27.29;101407.78;5090939;28;20035;-71
2022/05/18 09:58:38;;;;;;;4.80;1.15;;;;;;;20.38;27.25;101394.53;5108929;28;20047;-70
2022/05/18 10:09:39;;;;;;;1.88;1.00;;;;;;;20.61;26.37;101417.34;5109301;28;20077;-71
2022/05/18 10:12:35;;;;;;;2.03;0.93;;;;;;;20.58;26.24;101411.34;5109345;28;20039;-70
2022/05/18 10:15:07;;;;;;;8.27;1.20;;;;;;;20.56;26.49;101414.25;5108742;28;20023;-71
2022/05/18 10:17:37;;;;;;;4.57;1.40;;;;;;;20.57;26.51;101415.13;5109125;28;20042;-71
2022/05/18 10:20:20;;;;;;;3.17;0.73;;;;;;;20.56;26.95;101397.03;5090490;28;20036;-69
2022/05/18 10:22:47;;;;;;;7.63;1.15;;;;;;;20.62;26.12;101416.28;5107169;28;20031;-70
2022/05/18 10:25:39;;;;;;;6.28;1.00;;;;;;;20.64;25.31;101424.31;5108645;28;20079;-71
2022/05/18 10:28:31;;;;;;;6.45;0.90;;;;;;;20.65;24.66;101421.41;5108024;28;20046;-70
2022/05/18 10:31:04;;;;;;;4.82;0.85;;;;;;;20.59;24.67;101426.69;5103683;28;20039;-70
2022/05/18 10:33:31;;;;;;;7.93;0.90;;;;;;;20.58;25.03;101425.00;5108503;28;20161;-71
2022/05/18 10:36:09;;;;;;;7.05;0.98;;;;;;;20.60;24.91;101410.16;5106979;28;20032;-71
2022/05/18 10:38:35;;;;;;;7.25;1.20;;;;;;;20.61;25.63;101406.44;5108917;28;20471;-71
2022/05/18 10:41:04;;;;;;;18.13;2.35;;;;;;;20.62;23.85;101412.72;5089440;28;20095;-70
2022/05/18 10:43:38;;;;;;;2.30;0.77;;;;;;;20.62;23.30;101405.41;5108489;28;20050;-70
2022/05/18 10:46:12;;;;;;;3.47;0.90;;;;;;;20.66;24.07;101406.75;5108582;28;20023;-70
2022/05/18 10:48:41;;;;;;;10.82;1.15;;;;;;;20.62;22.86;101419.03;5108887;28;20491;-71
2022/05/18 10:51:11;;;;;;;3.72;0.70;;;;;;;20.61;22.93;101403.69;5089329;28;20051;-71
2022/05/18 10:53:43;;;;;;;2.88;0.80;;;;;;;20.59;23.63;101399.41;5108055;28;20054;-71
2022/05/18 10:56:25;;;;;;;3.47;0.93;;;;;;;20.55;23.67;101389.91;5108155;28;20034;-70
2022/05/18 10:59:12;;;;;;;5.28;0.65;;;;;;;20.61;23.70;101392.78;5108333;28;20485;-71
2022/05/18 11:01:45;;;;;;;3.25;1.02;;;;;;;20.63;22.86;101392.63;5089952;28;20077;-72
2022/05/18 11:04:50;;;;;;;3.55;0.95;;;;;;;20.58;22.87;101408.63;5108313;28;20542;-71
2022/05/18 11:07:21;;;;;;;6.05;0.77;;;;;;;20.56;22.65;101380.69;5107421;28;20043;-71
2022/05/18 11:09:46;;;;;;;5.45;1.15;;;;;;;20.60;23.40;101398.41;5108320;28;20475;-70
2022/05/18 11:12:24;;;;;;;6.57;1.10;;;;;;;20.66;24.09;101400.47;5107554;28;20032;-70
2022/05/18 11:15:00;;;;;;;2.67;1.25;;;;;;;20.68;24.13;101387.47;5106534;28;20024;-71
2022/05/18 11:17:44;;;;;;;7.63;1.35;;;;;;;20.71;24.33;101398.03;5107962;28;20027;-71
2022/05/18 11:20:16;;;;;;;3.60;1.13;;;;;;;20.74;24.53;101390.38;5108040;28;20035;-71
2022/05/18 11:23:09;;;;;;;4.18;0.80;;;;;;;20.82;24.00;101381.31;5108075;28;20391;-71
2022/05/18 11:25:59;;;;;;;4.50;1.30;;;;;;;20.81;22.39;101387.78;5106767;28;20048;-71
2022/05/18 11:28:37;;;;;;;7.82;1.02;;;;;;;20.83;22.04;101385.75;5107746;28;20612;-71
2022/05/18 11:31:26;;;;;;;4.90;0.70;;;;;;;20.84;22.59;101392.91;5107930;28;20028;-70
2022/05/18 11:34:07;;;;;;;5.68;1.08;;;;;;;20.86;22.57;101396.31;5089286;28;20027;-71
2022/05/18 11:36:44;;;;;;;6.00;1.02;;;;;;;20.84;22.00;101393.75;5107999;28;20062;-71
2022/05/18 11:39:11;;;;;;;2.97;1.00;;;;;;;20.81;22.17;101396.84;5107892;28;20571;-72
2022/05/18 11:42:09;;;;;;;7.55;1.13;;;;;;;20.83;22.74;101389.31;5107931;28;20084;-71
2022/05/18 11:44:43;;;;;;;4.13;0.90;;;;;;;20.84;22.56;101387.44;5072524;28;20410;-71
2022/05/18 11:47:17;;;;;;;;;;;;;;;20.84;22.65;101395.63;5110425;28;20038;-71
2022/05/18 11:50:04;;;;;;;2.50;1.00;;;;;;;20.81;22.50;101383.19;5091080;28;19919;-70
2022/05/18 11:52:32;;;;;;;5.25;0.90;;;;;;;20.82;22.83;101378.56;5111018;28;20024;-71
2022/05/18 11:55:20;;;;;;;2.65;0.68;;;;;;;20.82;22.81;101381.31;5111176;28;20518;-72